Terminal Aerodrome Forecast
Issued by NWS Blacksburg, VA

Home | Current Version | Previous Version | Text Only | Print | Product List | Glossary On
Versions: 1 2 3 4 5 6 7 8 9 10 11 12 13
000
FTUS41 KRNK 240646 AAA
TAFDAN
TAF AMD
KDAN 240646Z 2407/2506 VRB03KT P6SM BKN250
     FM241600 21007KT P6SM SCT090
     FM241800 21010G20KT P6SM BKN040
     FM242300 20006KT P6SM SCT090=

USA.gov is the U.S. government's official web portal to all federal, state and local government web resources and services.